Time;durP1;ratioP1;P1;durP2;ratioP2;P2;SDS_P1;SDS_P2;PMS_P1;PMS_P2;Temp;Humidity;BMP_temperature;BMP_pressure;BME280_temperature;BME280_humidity;BME280_pressure;Samples;Min_cycle;Max_cycle;Signal;HPM_P1;HPM_P2
2022/07/03 00:00:04;;;;;;;2.97;2.10;;;19.50;93.60;;;;;;4163835;28;20221;-78
2022/07/03 00:02:06;;;;;;;2.10;1.90;;;19.50;92.60;;;;;;4191377;28;20216;-78
2022/07/03 00:04:10;;;;;;;2.27;2.00;;;19.50;92.30;;;;;;4191460;28;20217;-78
2022/07/03 00:06:12;;;;;;;2.53;2.00;;;19.50;93.60;;;;;;4192661;28;20666;-78
2022/07/03 00:08:14;;;;;;;2.03;1.87;;;19.50;93.30;;;;;;4188413;28;20260;-78
2022/07/03 00:10:16;;;;;;;2.20;2.00;;;19.40;94.10;;;;;;4174889;28;20217;-78
2022/07/03 00:12:18;;;;;;;2.10;1.90;;;19.40;93.80;;;;;;4161536;28;20292;-78
2022/07/03 00:14:20;;;;;;;2.17;1.90;;;19.40;93.80;;;;;;4186063;28;20622;-78
2022/07/03 00:16:21;;;;;;;2.90;2.47;;;19.40;94.20;;;;;;4177126;28;20217;-78
2022/07/03 00:18:24;;;;;;;2.60;2.40;;;19.30;94.60;;;;;;4185580;28;20232;-78
2022/07/03 00:20:31;;;;;;;3.17;2.30;;;19.30;94.90;;;;;;4191230;28;20316;-78
2022/07/03 00:22:34;;;;;;;2.93;2.13;;;19.30;94.10;;;;;;4188653;28;20257;-78
2022/07/03 00:24:43;;;;;;;2.50;2.27;;;19.30;95.40;;;;;;4180453;28;20203;-78
2022/07/03 00:26:49;;;;;;;2.60;2.00;;;19.20;94.30;;;;;;4163987;28;20218;-78
2022/07/03 00:28:54;;;;;;;2.97;2.20;;;19.20;94.50;;;;;;4179913;28;20230;-78
2022/07/03 00:30:57;;;;;;;2.57;2.23;;;19.20;95.20;;;;;;4186479;28;20295;-78
2022/07/03 00:33:00;;;;;;;2.60;2.20;;;19.10;95.30;;;;;;4191689;28;20216;-78
2022/07/03 00:35:02;;;;;;;2.40;2.20;;;19.10;95.80;;;;;;4189085;28;20668;-77
2022/07/03 00:37:08;;;;;;;2.77;2.20;;;19.10;95.80;;;;;;4190865;28;20212;-78
2022/07/03 00:39:10;;;;;;;2.57;2.20;;;19.00;96.10;;;;;;4186520;28;20735;-78
2022/07/03 00:41:26;;;;;;;3.53;2.17;;;19.00;96.00;;;;;;4183650;28;20682;-78
2022/07/03 00:43:28;;;;;;;3.43;2.30;;;19.00;96.10;;;;;;4187664;28;20224;-78
2022/07/03 00:45:33;;;;;;;2.27;2.07;;;19.00;97.10;;;;;;4187902;28;20237;-78
2022/07/03 00:47:37;;;;;;;2.40;2.00;;;18.90;97.40;;;;;;4180983;28;20224;-78
2022/07/03 00:49:40;;;;;;;2.03;1.83;;;18.90;96.70;;;;;;4184193;28;20568;-78
2022/07/03 00:51:43;;;;;;;3.00;2.47;;;18.90;96.90;;;;;;4182903;28;20297;-78
2022/07/03 00:53:49;;;;;;;2.87;2.03;;;18.90;96.60;;;;;;4181180;28;20653;-77
2022/07/03 00:55:53;;;;;;;2.83;2.30;;;18.90;96.60;;;;;;4188222;28;20209;-78
2022/07/03 00:57:57;;;;;;;2.60;2.00;;;18.80;97.50;;;;;;4189832;28;20284;-78
2022/07/03 01:00:01;;;;;;;2.70;2.30;;;18.80;97.00;;;;;;4186526;28;20222;-78
2022/07/03 01:02:09;;;;;;;3.03;2.27;;;18.80;97.60;;;;;;4184546;28;20258;-77
2022/07/03 01:04:21;;;;;;;3.60;2.60;;;18.80;99.10;;;;;;4188412;28;20655;-78
2022/07/03 01:06:25;;;;;;;2.43;1.97;;;18.80;97.40;;;;;;4181378;28;20270;-78
2022/07/03 01:08:43;;;;;;;2.57;2.13;;;18.70;98.50;;;;;;4159177;28;20296;-78
2022/07/03 01:10:56;;;;;;;2.23;2.03;;;18.70;97.60;;;;;;4156194;28;20232;-79
2022/07/03 01:13:08;;;;;;;3.13;2.17;;;18.70;98.50;;;;;;4178962;28;20199;-78
2022/07/03 01:15:13;;;;;;;3.03;2.10;;;18.60;98.00;;;;;;4188416;28;20207;-80
2022/07/03 01:17:25;;;;;;;2.70;2.40;;;18.60;98.70;;;;;;4180562;28;20689;-79
2022/07/03 01:19:41;;;;;;;2.20;1.97;;;18.60;98.80;;;;;;4180156;28;20245;-79
2022/07/03 01:21:55;;;;;;;2.93;2.40;;;18.60;98.40;;;;;;4177090;28;20237;-79
2022/07/03 01:24:15;;;;;;;2.90;2.00;;;18.60;98.90;;;;;;4189435;28;20229;-78
2022/07/03 01:26:20;;;;;;;3.17;2.23;;;18.50;99.40;;;;;;4164753;28;20211;-78
2022/07/03 01:28:23;;;;;;;2.70;2.30;;;18.50;99.50;;;;;;4187435;28;20770;-79
2022/07/03 01:30:27;;;;;;;2.53;1.90;;;18.50;99.20;;;;;;4184657;28;20660;-79
2022/07/03 01:32:33;;;;;;;2.30;2.10;;;18.50;99.40;;;;;;4184136;28;20210;-79
2022/07/03 01:34:39;;;;;;;3.97;2.30;;;18.50;99.70;;;;;;4182721;28;20288;-78
2022/07/03 01:36:43;;;;;;;2.67;2.20;;;18.40;99.90;;;;;;4186005;28;20746;-80
2022/07/03 01:38:46;;;;;;;2.77;2.30;;;18.40;98.70;;;;;;4187733;28;20239;-79
2022/07/03 01:40:51;;;;;;;2.70;2.23;;;18.40;99.50;;;;;;4182610;28;20302;-78
2022/07/03 01:42:57;;;;;;;2.20;2.00;;;18.30;99.80;;;;;;4176937;28;20243;-79
2022/07/03 01:45:00;;;;;;;2.67;2.33;;;18.40;99.30;;;;;;4187590;28;20215;-79
2022/07/03 01:47:03;;;;;;;2.20;2.00;;;18.30;99.90;;;;;;4189259;28;20213;-79
2022/07/03 01:49:09;;;;;;;2.63;2.07;;;18.20;99.90;;;;;;4189357;28;20245;-78
2022/07/03 01:51:14;;;;;;;3.00;2.33;;;18.20;99.90;;;;;;4181938;28;20262;-80
2022/07/03 01:53:17;;;;;;;2.67;2.07;;;18.20;99.90;;;;;;4180634;28;20216;-79
2022/07/03 01:55:21;;;;;;;2.40;2.20;;;18.20;99.90;;;;;;4187184;28;20219;-79
2022/07/03 01:57:29;;;;;;;2.73;2.40;;;18.10;99.90;;;;;;4182423;28;20685;-78
2022/07/03 01:59:32;;;;;;;2.30;2.10;;;18.10;99.90;;;;;;4185967;28;20220;-78
2022/07/03 03:57:26;;;;;;;3.20;2.90;;;17.20;99.90;;;;;;4179907;28;20217;-78
2022/07/03 03:59:29;;;;;;;3.53;2.70;;;17.20;99.90;;;;;;4186909;28;20234;-79
2022/07/03 04:01:31;;;;;;;3.10;2.77;;;17.10;99.90;;;;;;4163644;28;20286;-78
2022/07/03 04:03:34;;;;;;;3.63;2.83;;;17.10;99.90;;;;;;4168613;28;20222;-79
2022/07/03 04:05:36;;;;;;;2.83;2.50;;;17.10;99.90;;;;;;4170136;28;20210;-78
2022/07/03 04:07:38;;;;;;;4.97;2.80;;;17.10;99.90;;;;;;4177649;28;20246;-78
2022/07/03 04:09:40;;;;;;;3.50;2.83;;;17.10;99.90;;;;;;4189378;28;20210;-79
2022/07/03 04:11:42;;;;;;;3.00;2.70;;;17.10;99.90;;;;;;4185635;28;20705;-80
2022/07/03 04:13:46;;;;;;;2.97;2.67;;;17.10;99.90;;;;;;4186957;28;20642;-79
2022/07/03 04:15:48;;;;;;;3.67;2.80;;;17.10;99.90;;;;;;4188107;28;20199;-80
2022/07/03 04:17:52;;;;;;;3.40;3.00;;;17.00;99.90;;;;;;4172442;28;20222;-79
2022/07/03 04:19:53;;;;;;;3.70;3.23;;;17.10;99.90;;;;;;4187741;28;20293;-78
2022/07/03 04:21:55;;;;;;;3.87;2.60;;;17.10;99.90;;;;;;4193078;28;20236;-78
2022/07/03 04:23:57;;;;;;;3.77;2.60;;;17.00;99.90;;;;;;4192454;28;20217;-78
2022/07/03 04:26:04;;;;;;;3.67;3.00;;;17.10;99.90;;;;;;4179157;28;20202;-78
2022/07/03 04:28:06;;;;;;;3.40;2.80;;;17.10;99.90;;;;;;4167564;28;20234;-80
2022/07/03 04:30:11;;;;;;;3.73;3.00;;;17.00;99.90;;;;;;4187224;28;20203;-79
2022/07/03 04:32:13;;;;;;;3.70;2.73;;;17.00;99.90;;;;;;4179310;28;20715;-79
2022/07/03 04:34:15;;;;;;;3.37;2.90;;;17.00;99.90;;;;;;4184380;28;20206;-79
2022/07/03 04:36:18;;;;;;;3.80;2.97;;;17.00;99.90;;;;;;4184056;28;20238;-79
2022/07/03 04:38:19;;;;;;;3.10;2.80;;;17.00;99.90;;;;;;4178982;28;20226;-79
2022/07/03 04:40:21;;;;;;;3.23;2.70;;;17.10;99.90;;;;;;4184352;28;20289;-79
2022/07/03 04:42:23;;;;;;;3.70;2.97;;;17.00;99.90;;;;;;4167961;28;20337;-79
2022/07/03 04:44:25;;;;;;;4.30;2.53;;;17.00;99.90;;;;;;4162888;28;20212;-79
2022/07/03 04:46:29;;;;;;;3.17;2.73;;;17.00;99.90;;;;;;4165469;28;20207;-79
2022/07/03 04:48:31;;;;;;;3.53;2.83;;;17.00;99.90;;;;;;4184705;28;20283;-79
2022/07/03 04:50:33;;;;;;;3.00;2.80;;;17.00;99.90;;;;;;4164791;28;20211;-79
2022/07/03 04:52:35;;;;;;;3.87;2.93;;;17.00;99.90;;;;;;4159265;28;20215;-78
2022/07/03 04:54:37;;;;;;;3.10;2.80;;;17.00;99.90;;;;;;4189787;28;20257;-79
2022/07/03 04:56:39;;;;;;;2.97;2.63;;;17.00;99.90;;;;;;4186083;28;20224;-82
2022/07/03 04:58:40;;;;;;;3.20;2.87;;;17.00;99.90;;;;;;4182590;28;20254;-79
2022/07/03 05:00:44;;;;;;;3.43;2.90;;;17.00;99.90;;;;;;4188412;28;20203;-78
2022/07/03 05:02:47;;;;;;;3.87;3.10;;;17.10;99.90;;;;;;4186585;28;20647;-78
2022/07/03 05:04:49;;;;;;;3.33;2.80;;;17.00;99.90;;;;;;4183389;28;20667;-78
2022/07/03 05:06:51;;;;;;;3.20;2.90;;;17.00;99.90;;;;;;4167927;28;20214;-78
2022/07/03 05:08:53;;;;;;;3.90;3.30;;;17.00;99.90;;;;;;4259089;22;20663;-77
2022/07/03 05:10:56;;;;;;;3.93;2.57;;;17.00;99.90;;;;;;4218651;28;20197;-78
2022/07/03 05:12:58;;;;;;;3.27;2.97;;;17.10;99.90;;;;;;4238304;28;20207;-77
2022/07/03 05:14:59;;;;;;;3.10;2.73;;;17.10;99.90;;;;;;4239067;28;20275;-78
2022/07/03 05:17:01;;;;;;;3.33;2.77;;;17.10;99.90;;;;;;4227555;28;20216;-79
2022/07/03 05:19:05;;;;;;;3.67;2.87;;;17.10;99.90;;;;;;4227082;27;20312;-78
2022/07/03 05:21:07;;;;;;;3.27;2.97;;;17.10;99.90;;;;;;4209971;28;20241;-78
2022/07/03 05:23:09;;;;;;;3.60;3.00;;;17.10;99.90;;;;;;4212485;28;20647;-78
2022/07/03 05:25:11;;;;;;;4.33;2.70;;;17.10;99.90;;;;;;4214663;28;20201;-78
2022/07/03 05:27:13;;;;;;;3.27;2.87;;;17.20;99.90;;;;;;4213232;28;20239;-78
2022/07/03 05:29:15;;;;;;;3.37;3.07;;;17.20;99.90;;;;;;4197045;28;20250;-76
2022/07/03 05:31:16;;;;;;;3.20;2.80;;;17.20;99.90;;;;;;4213401;28;20650;-78
2022/07/03 05:33:18;;;;;;;3.13;2.83;;;17.20;99.90;;;;;;4214831;28;20760;-78
2022/07/03 05:35:22;;;;;;;3.10;2.77;;;17.20;99.90;;;;;;4213711;28;20236;-78
2022/07/03 05:37:24;;;;;;;3.50;3.17;;;17.20;99.90;;;;;;4213460;28;20251;-78
2022/07/03 05:39:37;;;;;;;3.03;2.70;;;17.30;99.90;;;;;;4196087;28;20197;-77
2022/07/03 05:41:39;;;;;;;3.20;2.90;;;17.30;99.90;;;;;;4214643;28;20232;-78
2022/07/03 05:43:41;;;;;;;3.97;2.77;;;17.30;99.90;;;;;;4215497;28;20634;-78
2022/07/03 05:45:43;;;;;;;3.13;2.83;;;17.30;99.90;;;;;;4213965;28;20200;-79
2022/07/03 05:47:44;;;;;;;4.43;2.83;;;17.40;99.90;;;;;;4215264;28;20228;-79
2022/07/03 05:49:47;;;;;;;2.80;2.60;;;17.40;99.90;;;;;;4216240;28;20193;-78
2022/07/03 05:51:50;;;;;;;3.40;2.90;;;17.40;99.90;;;;;;4200667;28;20208;-78
2022/07/03 05:53:53;;;;;;;3.10;2.70;;;17.40;99.90;;;;;;4214613;28;20201;-77
2022/07/03 05:55:55;;;;;;;3.07;2.77;;;17.50;99.90;;;;;;4213437;28;20205;-78
2022/07/03 05:57:57;;;;;;;3.73;3.00;;;17.50;99.90;;;;;;4216279;28;20221;-78
2022/07/03 05:59:59;;;;;;;5.20;3.67;;;17.50;99.90;;;;;;4213037;28;20266;-79
2022/07/03 06:02:01;;;;;;;4.23;3.30;;;17.60;99.90;;;;;;4215741;28;20228;-78
2022/07/03 06:04:03;;;;;;;3.97;2.90;;;17.70;99.90;;;;;;4218480;28;20209;-78
2022/07/03 06:06:05;;;;;;;2.90;2.50;;;17.80;99.90;;;;;;4219016;28;20205;-78
2022/07/03 06:08:08;;;;;;;5.57;3.50;;;17.80;99.90;;;;;;4217103;28;20713;-77
2022/07/03 06:10:10;;;;;;;5.10;4.07;;;17.90;99.90;;;;;;4197582;28;20213;-77
2022/07/03 06:12:12;;;;;;;5.17;3.27;;;17.90;99.90;;;;;;4216131;28;20585;-77
2022/07/03 06:14:14;;;;;;;3.30;3.00;;;18.00;99.90;;;;;;4197879;28;20248;-77
2022/07/03 06:16:16;;;;;;;3.40;2.57;;;18.10;99.90;;;;;;4216261;28;20289;-77
2022/07/03 06:18:18;;;;;;;5.17;2.53;;;18.10;99.90;;;;;;4214031;28;20217;-77
2022/07/03 06:20:20;;;;;;;3.93;2.70;;;18.20;99.90;;;;;;4214504;28;20658;-76
2022/07/03 06:22:22;;;;;;;3.30;3.00;;;18.20;99.90;;;;;;4212513;28;20308;-78
2022/07/03 06:24:25;;;;;;;2.90;2.60;;;18.30;99.90;;;;;;4212842;28;20683;-78
2022/07/03 06:26:28;;;;;;;3.13;2.63;;;18.30;99.90;;;;;;4192658;28;20587;-78
2022/07/03 06:28:30;;;;;;;3.33;2.87;;;18.40;99.90;;;;;;4201156;28;20218;-78
2022/07/03 06:30:32;;;;;;;4.33;2.83;;;18.40;99.90;;;;;;4210868;28;20237;-78
2022/07/03 06:32:34;;;;;;;2.40;2.20;;;18.50;99.90;;;;;;4212081;28;20234;-78
2022/07/03 06:34:36;;;;;;;2.60;2.37;;;18.50;99.90;;;;;;4193989;28;20746;-78
2022/07/03 06:36:38;;;;;;;3.43;2.60;;;18.60;99.90;;;;;;4212791;28;20650;-79
2022/07/03 06:38:40;;;;;;;3.90;2.70;;;18.70;99.90;;;;;;4212644;28;20232;-77
2022/07/03 06:40:43;;;;;;;3.40;2.60;;;18.70;99.90;;;;;;4215225;28;20278;-77
2022/07/03 06:42:45;;;;;;;3.20;2.90;;;18.80;99.90;;;;;;4213838;28;20256;-79
2022/07/03 06:44:47;;;;;;;3.53;3.00;;;18.90;99.90;;;;;;4221558;28;20610;-78
2022/07/03 06:46:49;;;;;;;3.40;2.77;;;19.00;99.90;;;;;;4204581;28;20252;-79
2022/07/03 06:48:51;;;;;;;3.10;2.73;;;19.00;99.90;;;;;;4221011;28;20234;-77
2022/07/03 06:50:53;;;;;;;4.33;2.67;;;19.10;99.90;;;;;;4216843;28;20207;-79
2022/07/03 06:52:55;;;;;;;4.13;3.00;;;19.10;99.90;;;;;;4220130;28;20262;-78
2022/07/03 06:54:56;;;;;;;3.27;2.50;;;19.20;99.90;;;;;;4223656;28;20277;-78
2022/07/03 06:57:00;;;;;;;3.27;2.80;;;19.30;99.90;;;;;;4202554;28;20240;-78
2022/07/03 06:59:02;;;;;;;3.73;2.83;;;19.30;99.90;;;;;;4223720;28;20240;-78
2022/07/03 07:01:03;;;;;;;3.03;2.73;;;19.40;99.90;;;;;;4224696;28;20219;-76
2022/07/03 07:03:06;;;;;;;4.07;2.50;;;19.40;99.90;;;;;;4223903;28;20254;-76
2022/07/03 07:05:08;;;;;;;2.50;2.30;;;19.50;99.90;;;;;;4216758;28;20212;-78
2022/07/03 07:07:10;;;;;;;2.80;2.37;;;19.60;99.90;;;;;;4217945;28;20212;-78
2022/07/03 07:09:12;;;;;;;6.23;2.90;;;19.60;99.90;;;;;;4216346;28;20279;-78
2022/07/03 07:11:14;;;;;;;3.93;2.60;;;19.70;99.90;;;;;;4216134;28;20224;-78
2022/07/03 07:13:18;;;;;;;3.17;2.50;;;19.80;99.90;;;;;;4217496;28;20200;-78
2022/07/03 07:15:20;;;;;;;2.60;2.40;;;19.90;99.90;;;;;;4217827;28;20205;-78
2022/07/03 07:17:21;;;;;;;3.47;2.50;;;20.00;99.90;;;;;;4217657;28;20697;-77
2022/07/03 07:19:23;;;;;;;3.20;2.53;;;20.00;99.90;;;;;;4217449;28;20205;-78
2022/07/03 07:21:25;;;;;;;3.40;2.97;;;20.10;99.90;;;;;;4218930;28;20201;-76
2022/07/03 07:23:27;;;;;;;3.30;3.00;;;20.10;99.90;;;;;;4218101;28;20653;-77
2022/07/03 07:25:29;;;;;;;3.53;2.27;;;20.20;99.90;;;;;;4215827;28;20212;-76
2022/07/03 07:27:31;;;;;;;3.60;2.30;;;20.30;99.90;;;;;;4215418;28;20207;-78
2022/07/03 07:29:34;;;;;;;2.63;2.20;;;20.30;99.90;;;;;;4215428;28;20204;-77
2022/07/03 07:31:36;;;;;;;2.60;2.23;;;20.40;99.90;;;;;;4215439;28;20231;-76
2022/07/03 07:33:38;;;;;;;2.73;2.23;;;20.40;99.20;;;;;;4217979;28;20219;-79
2022/07/03 07:35:40;;;;;;;3.67;2.10;;;20.50;98.50;;;;;;4223053;28;20725;-77
2022/07/03 07:37:42;;;;;;;4.07;2.87;;;20.60;98.70;;;;;;4222494;28;20689;-78
2022/07/03 07:39:44;;;;;;;4.17;2.40;;;20.70;98.30;;;;;;4222402;28;20201;-78
2022/07/03 07:41:46;;;;;;;4.37;2.33;;;20.70;96.70;;;;;;4223828;28;20228;-78
2022/07/03 07:43:48;;;;;;;2.37;2.17;;;20.80;95.80;;;;;;4224173;28;20260;-80
2022/07/03 07:45:52;;;;;;;3.53;2.30;;;20.90;95.00;;;;;;4221294;28;20212;-77
2022/07/03 07:47:54;;;;;;;3.27;2.13;;;21.00;95.00;;;;;;4222720;28;20257;-79
2022/07/03 07:49:56;;;;;;;5.30;2.20;;;21.00;95.60;;;;;;4224396;28;20197;-79
2022/07/03 07:51:58;;;;;;;3.10;2.77;;;21.10;94.70;;;;;;4224331;28;20201;-79
2022/07/03 07:54:00;;;;;;;3.13;2.60;;;21.20;94.70;;;;;;4226146;28;20253;-79
2022/07/03 07:56:02;;;;;;;3.60;2.50;;;21.20;95.10;;;;;;4206211;28;20229;-79
2022/07/03 07:58:04;;;;;;;5.07;2.50;;;21.20;94.00;;;;;;4219656;28;20248;-78
2022/07/03 08:00:08;;;;;;;4.27;2.43;;;21.30;93.40;;;;;;4229140;28;20300;-79
2022/07/03 08:06:50;;;;;;;2.87;2.37;;;21.60;92.10;;;;;;4229275;28;20201;-79
2022/07/03 08:08:52;;;;;;;2.43;2.23;;;21.60;91.50;;;;;;4227496;28;20231;-78
2022/07/03 08:10:54;;;;;;;3.60;2.40;;;21.70;91.90;;;;;;4224547;28;20198;-78
2022/07/03 08:12:56;;;;;;;4.60;2.37;;;21.70;91.70;;;;;;4221520;28;20198;-77
2022/07/03 08:15:03;;;;;;;2.40;2.20;;;21.80;91.70;;;;;;4218296;28;20584;-79
2022/07/03 08:17:06;;;;;;;4.40;2.40;;;21.80;91.40;;;;;;4198428;28;20304;-80
2022/07/03 08:19:09;;;;;;;4.17;2.00;;;21.90;90.00;;;;;;4196784;28;20227;-78
2022/07/03 08:21:11;;;;;;;3.73;2.30;;;22.00;89.80;;;;;;4209504;28;20294;-78
2022/07/03 08:23:13;;;;;;;2.60;2.20;;;22.00;89.80;;;;;;4212261;28;20218;-78
2022/07/03 08:25:14;;;;;;;2.77;2.40;;;22.10;89.50;;;;;;4214311;28;20289;-77
2022/07/03 08:27:16;;;;;;;3.23;2.43;;;22.20;88.20;;;;;;4213573;28;20281;-77
2022/07/03 08:29:18;;;;;;;4.90;2.27;;;22.20;86.30;;;;;;4218636;28;20629;-79
2022/07/03 08:31:20;;;;;;;2.83;1.90;;;22.40;82.10;;;;;;4216479;28;20260;-80
2022/07/03 08:33:22;;;;;;;2.40;2.20;;;22.50;82.10;;;;;;4201462;28;20196;-78
2022/07/03 08:35:25;;;;;;;2.30;1.83;;;22.50;80.60;;;;;;4195783;28;20212;-80
2022/07/03 08:37:28;;;;;;;3.97;2.10;;;22.60;79.30;;;;;;4220499;28;20583;-80
2022/07/03 08:39:29;;;;;;;2.33;2.03;;;22.70;78.70;;;;;;4218052;28;20234;-80
2022/07/03 08:41:33;;;;;;;2.97;1.90;;;22.80;79.30;;;;;;4219044;28;20207;-81
2022/07/03 08:43:37;;;;;;;2.60;2.23;;;22.80;78.50;;;;;;4202027;28;20280;-78
2022/07/03 08:45:41;;;;;;;2.13;1.93;;;22.90;77.90;;;;;;4217884;28;20263;-76
2022/07/03 08:47:44;;;;;;;3.00;1.93;;;23.00;77.30;;;;;;4227342;28;20231;-78
2022/07/03 08:49:47;;;;;;;1.97;1.70;;;23.00;76.70;;;;;;4221605;28;20201;-77
2022/07/03 08:51:53;;;;;;;1.90;1.77;;;23.10;77.80;;;;;;4216189;28;20268;-78
2022/07/03 08:53:55;;;;;;;2.20;1.97;;;23.20;76.00;;;;;;4215823;28;20283;-78
2022/07/03 08:55:57;;;;;;;3.37;1.90;;;23.30;74.80;;;;;;4213861;28;20203;-76
2022/07/03 08:58:01;;;;;;;2.20;1.80;;;23.40;73.50;;;;;;4212522;28;20704;-77
2022/07/03 09:00:06;;;;;;;3.73;2.23;;;23.40;74.50;;;;;;4215287;28;20849;-76
2022/07/03 09:02:08;;;;;;;3.27;1.90;;;23.50;71.60;;;;;;4212504;28;20292;-80
2022/07/03 09:04:13;;;;;;;2.27;2.07;;;23.60;66.50;;;;;;4215627;28;20221;-78
2022/07/03 09:06:14;;;;;;;4.00;2.13;;;23.70;66.40;;;;;;4216877;28;20268;-78
2022/07/03 09:08:19;;;;;;;2.00;1.80;;;23.80;69.00;;;;;;4214743;28;20264;-77
2022/07/03 09:10:23;;;;;;;2.07;1.80;;;23.90;67.00;;;;;;4214268;28;20288;-74
2022/07/03 09:12:25;;;;;;;3.60;2.10;;;24.10;59.90;;;;;;4213611;28;20291;-76
2022/07/03 09:14:27;;;;;;;1.73;1.50;;;24.20;55.60;;;;;;4210990;28;20665;-77
2022/07/03 09:16:29;;;;;;;4.70;1.90;;;24.30;51.90;;;;;;4196931;28;20263;-77
2022/07/03 09:18:39;;;;;;;1.63;1.50;;;24.40;51.40;;;;;;4214341;28;20361;-78
2022/07/03 09:20:43;;;;;;;1.90;1.50;;;24.50;52.50;;;;;;4208511;28;20205;-79
2022/07/03 09:22:45;;;;;;;1.73;1.63;;;24.60;52.30;;;;;;4206057;28;20630;-78
2022/07/03 09:24:48;;;;;;;3.63;1.40;;;24.70;51.80;;;;;;4215066;28;20248;-79
2022/07/03 09:26:53;;;;;;;1.60;1.50;;;24.80;50.50;;;;;;4192800;28;20644;-79
2022/07/03 09:28:55;;;;;;;2.40;1.70;;;24.80;51.20;;;;;;4213681;28;20308;-78
2022/07/03 09:30:59;;;;;;;1.73;1.63;;;24.90;51.00;;;;;;4192215;28;20651;-79
2022/07/03 09:33:01;;;;;;;2.13;1.77;;;24.90;50.10;;;;;;4190752;28;20269;-79
2022/07/03 09:35:18;;;;;;;2.17;1.93;;;25.00;50.60;;;;;;4213869;28;20291;-78
2022/07/03 09:37:25;;;;;;;2.13;1.93;;;25.10;50.10;;;;;;4212363;28;20205;-78
2022/07/03 09:39:30;;;;;;;2.30;1.70;;;25.10;49.40;;;;;;4215904;28;20569;-80
2022/07/03 09:41:55;;;;;;;1.53;1.43;;;25.20;49.70;;;;;;4214916;28;20212;-79
2022/07/03 09:43:57;;;;;;;2.70;1.40;;;25.20;49.70;;;;;;4211597;28;20227;-78
2022/07/03 09:46:00;;;;;;;1.80;1.57;;;25.30;48.60;;;;;;4212039;28;20817;-78
2022/07/03 09:48:02;;;;;;;1.90;1.70;;;25.40;48.40;;;;;;4210217;28;20664;-77
2022/07/03 09:50:05;;;;;;;1.80;1.70;;;25.40;48.50;;;;;;4213974;28;20274;-79
2022/07/03 09:52:07;;;;;;;2.33;1.57;;;25.50;48.50;;;;;;4194958;28;20623;-79
2022/07/03 09:54:16;;;;;;;1.60;1.50;;;25.60;47.90;;;;;;4214042;28;20226;-79
2022/07/03 09:56:19;;;;;;;1.90;1.70;;;25.60;47.30;;;;;;4213130;28;20250;-78
2022/07/03 09:58:23;;;;;;;1.50;1.40;;;25.70;48.00;;;;;;4196078;28;20596;-80
2022/07/03 10:00:26;;;;;;;1.50;1.40;;;25.80;45.70;;;;;;4212934;28;20292;-78
2022/07/03 10:02:28;;;;;;;1.50;1.30;;;25.80;46.50;;;;;;4210706;28;20284;-78
2022/07/03 10:04:29;;;;;;;1.47;1.37;;;25.80;45.70;;;;;;4213215;28;20217;-79
2022/07/03 10:06:47;;;;;;;2.07;1.60;;;25.90;45.80;;;;;;4210403;28;20232;-78
2022/07/03 10:08:50;;;;;;;1.93;1.53;;;26.00;45.40;;;;;;4213186;28;20267;-77
2022/07/03 10:10:52;;;;;;;1.83;1.40;;;26.10;45.30;;;;;;4213161;28;20213;-79
2022/07/03 10:12:55;;;;;;;2.40;1.60;;;26.10;44.80;;;;;;4212668;28;20238;-80
2022/07/03 10:14:58;;;;;;;1.57;1.47;;;26.30;45.10;;;;;;4192657;28;20233;-79
2022/07/03 10:17:01;;;;;;;1.60;1.50;;;26.40;45.30;;;;;;4212208;28;20201;-79
2022/07/03 10:19:04;;;;;;;1.53;1.43;;;26.50;45.00;;;;;;4211290;28;20221;-78
2022/07/03 10:21:07;;;;;;;2.83;1.43;;;26.60;44.80;;;;;;4212825;28;20209;-80
2022/07/03 10:23:10;;;;;;;1.83;1.40;;;26.80;44.20;;;;;;4211182;28;20264;-78
2022/07/03 10:25:15;;;;;;;2.10;1.70;;;26.90;44.20;;;;;;4212722;28;20243;-78
2022/07/03 10:27:20;;;;;;;1.80;1.50;;;27.10;43.50;;;;;;4220610;28;20220;-79
2022/07/03 10:29:24;;;;;;;2.03;1.40;;;27.30;41.40;;;;;;4209579;28;20244;-78
2022/07/03 10:31:28;;;;;;;1.13;1.07;;;27.40;39.20;;;;;;4198220;28;20404;-78
2022/07/03 10:33:31;;;;;;;2.50;1.30;;;27.40;38.30;;;;;;4197001;28;20664;-79
2022/07/03 10:35:35;;;;;;;2.03;1.10;;;27.40;38.40;;;;;;4212753;28;20750;-79
2022/07/03 10:37:46;;;;;;;1.20;1.10;;;27.40;38.40;;;;;;4208109;28;20229;-81
2022/07/03 10:44:45;;;;;;;1.37;1.27;;;27.50;38.70;;;;;;4215992;28;20208;-79
2022/07/03 10:44:52;;;;;;;1.20;1.10;;;27.60;38.20;;;;;;4213657;28;20259;-79
2022/07/03 10:46:55;;;;;;;1.50;1.10;;;27.60;37.40;;;;;;4214750;28;20624;-79
2022/07/03 10:49:02;;;;;;;1.00;0.90;;;27.60;37.20;;;;;;4213893;28;20221;-79
2022/07/03 10:51:13;;;;;;;1.10;1.00;;;27.70;37.00;;;;;;4214993;28;20210;-79
2022/07/03 10:53:25;;;;;;;1.97;1.07;;;27.70;36.80;;;;;;4213263;28;20228;-79
2022/07/03 10:55:27;;;;;;;1.30;1.03;;;27.80;36.20;;;;;;4212948;28;20205;-78
2022/07/03 10:57:28;;;;;;;1.13;0.97;;;27.90;36.70;;;;;;4192065;28;20198;-78
2022/07/03 11:00:05;;;;;;;1.20;1.07;;;27.90;36.50;;;;;;4211102;28;20288;-78
2022/07/03 11:02:22;;;;;;;1.50;1.13;;;28.00;36.70;;;;;;4209304;28;20197;-78
2022/07/03 11:04:23;;;;;;;1.23;1.13;;;28.20;36.40;;;;;;4210528;28;20689;-73
2022/07/03 11:07:03;;;;;;;1.23;1.10;;;28.30;36.00;;;;;;4213936;28;20205;-77
2022/07/03 11:09:05;;;;;;;0.90;0.90;;;28.40;35.10;;;;;;4216181;28;20260;-77
2022/07/03 11:11:56;;;;;;;1.33;1.20;;;28.60;35.80;;;;;;4215028;28;20693;-78
2022/07/03 11:14:20;;;;;;;1.97;1.20;;;28.80;35.00;;;;;;4217836;28;20208;-78
2022/07/03 11:16:25;;;;;;;1.90;1.10;;;28.90;34.80;;;;;;4220469;28;20209;-78
2022/07/03 11:18:37;;;;;;;1.20;1.10;;;29.00;34.20;;;;;;4220911;28;20225;-80
2022/07/03 11:21:23;;;;;;;1.20;1.00;;;29.10;33.90;;;;;;4202492;28;20233;-80
2022/07/03 11:23:31;;;;;;;1.20;1.10;;;29.20;34.30;;;;;;4217804;28;20282;-80
2022/07/03 11:25:40;;;;;;;1.20;1.10;;;29.30;34.00;;;;;;4214599;28;20197;-79
2022/07/03 11:27:41;;;;;;;0.98;0.98;;;29.50;34.20;;;;;;4211650;28;20281;-80
2022/07/03 11:29:59;;;;;;;3.80;1.27;;;29.60;33.70;;;;;;4214956;28;20201;-79
2022/07/03 11:32:44;;;;;;;2.75;1.20;;;29.70;32.80;;;;;;4215367;28;20596;-79
2022/07/03 11:34:47;;;;;;;2.80;1.08;;;29.80;32.60;;;;;;4212653;28;20542;-78
2022/07/03 11:36:49;;;;;;;1.25;0.90;;;30.00;32.90;;;;;;4216225;28;20205;-80
2022/07/03 11:39:04;;;;;;;1.00;0.90;;;30.10;33.30;;;;;;4216893;28;20312;-80
2022/07/03 11:41:08;;;;;;;1.23;1.05;;;30.30;31.70;;;;;;4216787;28;20201;-80
2022/07/03 11:43:12;;;;;;;2.22;0.98;;;30.50;32.10;;;;;;4217258;28;20631;-79
2022/07/03 11:45:14;;;;;;;1.02;0.90;;;30.70;31.20;;;;;;4215494;28;20232;-79
2022/07/03 11:47:17;;;;;;;4.40;1.02;;;30.90;31.20;;;;;;4197588;28;20317;-78
2022/07/03 11:49:21;;;;;;;2.72;0.98;;;31.00;30.70;;;;;;4215475;28;20292;-78
2022/07/03 11:51:24;;;;;;;0.95;0.85;;;31.20;30.90;;;;;;4214505;28;20212;-78
2022/07/03 11:53:29;;;;;;;1.77;1.10;;;31.40;30.30;;;;;;4214775;28;20205;-78
2022/07/03 11:55:31;;;;;;;1.10;1.00;;;31.50;30.10;;;;;;4198073;28;20213;-77
2022/07/03 11:57:33;;;;;;;2.50;1.10;;;31.60;30.30;;;;;;4215070;28;20205;-78
2022/07/03 11:59:35;;;;;;;3.03;1.20;;;31.80;30.40;;;;;;4214156;28;20280;-78
2022/07/03 12:01:38;;;;;;;2.47;0.90;;;32.10;30.20;;;;;;4212520;28;20201;-78
2022/07/03 12:03:42;;;;;;;1.10;0.98;;;32.40;29.90;;;;;;4214379;28;20295;-78
2022/07/03 12:05:55;;;;;;;1.17;1.00;;;32.70;29.70;;;;;;4199627;28;20202;-78
2022/07/03 12:08:04;;;;;;;1.25;1.02;;;33.10;29.50;;;;;;4217537;28;20232;-78
2022/07/03 12:10:07;;;;;;;2.72;0.90;;;33.30;28.70;;;;;;4218548;28;20205;-79
2022/07/03 12:12:11;;;;;;;0.73;0.73;;;33.60;28.60;;;;;;4218365;28;20205;-79
2022/07/03 12:14:13;;;;;;;0.85;0.85;;;33.60;28.50;;;;;;4214538;28;20212;-78
2022/07/03 12:16:15;;;;;;;2.50;1.02;;;33.60;28.10;;;;;;4195077;28;20210;-78
2022/07/03 12:18:17;;;;;;;0.90;0.80;;;33.80;28.20;;;;;;4212092;28;20308;-78
2022/07/03 12:20:19;;;;;;;1.10;1.00;;;34.10;28.30;;;;;;4197561;28;20296;-78
2022/07/03 12:22:30;;;;;;;1.70;0.88;;;34.40;28.20;;;;;;4216887;28;20220;-80
2022/07/03 12:24:34;;;;;;;1.45;0.90;;;34.70;27.80;;;;;;4196196;28;20221;-80
2022/07/03 12:26:37;;;;;;;2.17;0.95;;;35.00;27.60;;;;;;4213194;28;20286;-78
2022/07/03 12:28:39;;;;;;;1.02;0.80;;;35.10;26.90;;;;;;4195578;28;20221;-78
2022/07/03 12:30:41;;;;;;;1.65;1.10;;;35.30;27.30;;;;;;4213407;28;20207;-78
2022/07/03 12:32:46;;;;;;;0.98;0.80;;;35.60;26.90;;;;;;4197694;28;20241;-80
2022/07/03 12:34:48;;;;;;;0.77;0.77;;;36.00;26.80;;;;;;4214802;28;20197;-80
2022/07/03 12:36:58;;;;;;;1.10;1.00;;;36.30;26.50;;;;;;4198537;28;20241;-80
2022/07/03 12:39:00;;;;;;;1.88;0.85;;;36.80;26.30;;;;;;4217530;28;20230;-80
2022/07/03 12:41:07;;;;;;;0.77;0.77;;;37.20;25.50;;;;;;4215326;28;20211;-80
2022/07/03 12:43:09;;;;;;;2.75;0.70;;;37.20;24.80;;;;;;4216398;28;20205;-80
2022/07/03 12:45:13;;;;;;;1.33;0.70;;;37.30;23.40;;;;;;4219101;28;20227;-80
2022/07/03 12:47:17;;;;;;;0.80;0.80;;;37.60;23.80;;;;;;4217279;28;20269;-80
2022/07/03 12:49:19;;;;;;;0.88;0.73;;;37.60;23.90;;;;;;4215269;28;20205;-79
2022/07/03 12:51:41;;;;;;;1.10;0.77;;;37.90;23.90;;;;;;4216263;28;20216;-80